Dallas, Oregon
Current Conditions -  °F | °C
As of 1:56 AM on Friday 21 Nov 2014 (Local Time) from KSLE Reporting Station
Haze Haze  
Wind Chill: 47°   Ceiling: 400
Heat Index: 47°   Visibility: 4mi
Dew Point: 46°   Wind: 0mph
Humidity: 97%   Direction: NA
Pressure: 29.93"   Gusts: NA
Location:  44.92°N, 123.31°W
Report Text: KSLE 210956Z AUTO 00000KT 4SM BR OVC004 08/08 A2993 RMK AO2 SLP135 T00830078
Loading
Personal Weather Stations






























Interactive Weather Map New forecast layout! Learn more

10-Day Weather Forecast

Advertisements
Track Severe Weather on mobile